createdAt,value
2022-08-11T00:00:18.968Z,1023.00
2022-08-11T00:01:13.467Z,1023.00
2022-08-11T00:02:15.302Z,1023.03
2022-08-11T00:03:15.245Z,1022.98
2022-08-11T00:04:15.495Z,1023.00
2022-08-11T00:05:15.612Z,1022.95
2022-08-11T00:06:16.710Z,1023.00
2022-08-11T00:07:16.600Z,1023.00
2022-08-11T00:08:15.586Z,1022.96
2022-08-11T00:09:15.277Z,1022.99
2022-08-11T00:10:15.102Z,1022.97
2022-08-11T00:11:13.930Z,1022.96
2022-08-11T00:12:13.314Z,1022.93
2022-08-11T00:13:14.965Z,1022.89
2022-08-11T00:14:16.422Z,1022.94
2022-08-11T00:15:14.347Z,1022.92
2022-08-11T00:16:14.561Z,1022.92
2022-08-11T00:17:13.553Z,1022.96
2022-08-11T00:18:13.748Z,1022.94
2022-08-11T00:19:13.654Z,1022.92
2022-08-11T00:20:17.760Z,1022.93
2022-08-11T00:21:13.597Z,1022.89
2022-08-11T00:22:17.636Z,1022.92
2022-08-11T00:23:18.204Z,1022.92
2022-08-11T00:24:13.381Z,1022.91
2022-08-11T00:25:13.564Z,1022.93
2022-08-11T00:26:13.877Z,1022.93
2022-08-11T00:27:16.782Z,1022.96
2022-08-11T00:28:14.104Z,1022.94
2022-08-11T00:29:14.666Z,1022.95
2022-08-11T00:30:14.552Z,1022.96
2022-08-11T00:31:16.422Z,1022.93
2022-08-11T00:32:14.846Z,1022.95
2022-08-11T00:33:13.721Z,1022.92
2022-08-11T00:34:13.725Z,1022.91
2022-08-11T00:35:51.650Z,1022.93
2022-08-11T00:36:13.560Z,1022.94
2022-08-11T00:37:16.801Z,1022.92
2022-08-11T00:38:15.230Z,1022.92
2022-08-11T00:39:15.603Z,1022.94
2022-08-11T00:40:13.554Z,1022.93
2022-08-11T00:41:15.090Z,1022.94
2022-08-11T00:42:14.028Z,1022.94
2022-08-11T00:43:20.724Z,1022.94
2022-08-11T00:44:13.708Z,1022.96
2022-08-11T00:45:13.905Z,1022.95
2022-08-11T00:46:13.015Z,1022.95
2022-08-11T00:47:13.134Z,1022.98
2022-08-11T00:48:13.101Z,1022.97
2022-08-11T00:49:16.954Z,1022.98
2022-08-11T00:50:15.301Z,1022.95
2022-08-11T00:51:13.143Z,1022.97
2022-08-11T00:52:13.016Z,1022.96
2022-08-11T00:53:14.413Z,1022.96
2022-08-11T00:54:13.306Z,1022.99
2022-08-11T00:55:13.237Z,1022.99
2022-08-11T00:56:13.541Z,1022.97
2022-08-11T00:57:36.134Z,1022.99
2022-08-11T00:58:13.504Z,1022.98
2022-08-11T00:59:35.075Z,1022.99
2022-08-11T01:00:14.394Z,1022.95
2022-08-11T01:01:15.374Z,1022.94
2022-08-11T01:02:13.506Z,1022.94
2022-08-11T01:03:23.343Z,1022.96
2022-08-11T01:04:13.461Z,1022.96
2022-08-11T01:05:15.091Z,1022.95
2022-08-11T01:06:13.210Z,1022.95
2022-08-11T01:07:13.291Z,1022.93
2022-08-11T01:08:15.206Z,1022.90
2022-08-11T01:09:17.888Z,1022.90
2022-08-11T01:10:14.555Z,1022.89
2022-08-11T01:11:13.522Z,1022.90
2022-08-11T01:12:13.474Z,1022.85
2022-08-11T01:13:14.375Z,1022.85
2022-08-11T01:14:13.323Z,1022.86
2022-08-11T01:15:14.145Z,1022.86
2022-08-11T01:16:12.963Z,1022.85
2022-08-11T01:17:14.375Z,1022.87
2022-08-11T01:18:17.189Z,1022.90
2022-08-11T01:19:13.248Z,1022.84
2022-08-11T01:20:45.645Z,1022.86
2022-08-11T01:21:15.069Z,1022.88
2022-08-11T01:22:13.102Z,1022.84
2022-08-11T01:23:17.425Z,1022.86
2022-08-11T01:24:13.654Z,1022.86
2022-08-11T01:25:16.438Z,1022.87
2022-08-11T01:26:13.459Z,1022.89
2022-08-11T01:27:18.827Z,1022.88
2022-08-11T01:28:14.709Z,1022.86
2022-08-11T01:29:13.522Z,1022.85
2022-08-11T01:30:13.529Z,1022.85
2022-08-11T01:31:13.522Z,1022.85
2022-08-11T01:32:16.139Z,1022.87
2022-08-11T01:33:13.203Z,1022.85
2022-08-11T01:34:16.799Z,1022.86
2022-08-11T01:35:13.653Z,1022.89
2022-08-11T01:36:18.499Z,1022.87
2022-08-11T01:37:13.597Z,1022.89
2022-08-11T01:38:13.974Z,1022.87
2022-08-11T01:39:18.452Z,1022.90
2022-08-11T01:40:15.116Z,1022.89
2022-08-11T01:41:13.151Z,1022.88
2022-08-11T01:42:13.016Z,1022.88
2022-08-11T01:43:12.901Z,1022.88
2022-08-11T01:44:14.643Z,1022.88
2022-08-11T01:45:15.401Z,1022.87
2022-08-11T01:46:13.592Z,1022.85
2022-08-11T01:47:13.493Z,1022.84
2022-08-11T01:48:13.368Z,1022.86
2022-08-11T01:49:29.137Z,1022.87
2022-08-11T01:50:13.431Z,1022.84
2022-08-11T01:51:14.842Z,1022.84
2022-08-11T01:52:13.066Z,1022.89
2022-08-11T01:53:14.641Z,1022.87
2022-08-11T01:54:13.872Z,1022.88
2022-08-11T01:55:14.011Z,1022.90
2022-08-11T01:56:13.966Z,1022.89
2022-08-11T01:57:12.985Z,1022.87
2022-08-11T01:58:13.339Z,1022.88
2022-08-11T01:59:13.150Z,1022.90
2022-08-11T02:00:13.272Z,1022.93
2022-08-11T02:01:13.313Z,1022.92
2022-08-11T02:02:16.654Z,1022.92
2022-08-11T02:03:13.908Z,1022.92
2022-08-11T02:04:12.982Z,1022.95
2022-08-11T02:05:12.914Z,1022.94
2022-08-11T02:06:12.750Z,1022.94
2022-08-11T02:07:15.121Z,1022.94
2022-08-11T02:08:13.115Z,1022.93
2022-08-11T02:09:13.031Z,1022.93
2022-08-11T02:10:13.549Z,1022.93
2022-08-11T02:11:14.014Z,1022.94
2022-08-11T02:12:12.985Z,1022.97
2022-08-11T02:13:13.010Z,1022.96
2022-08-11T02:14:12.920Z,1022.96
2022-08-11T02:15:13.075Z,1022.94
2022-08-11T02:16:13.144Z,1022.99
2022-08-11T02:17:13.123Z,1022.90
2022-08-11T02:18:13.494Z,1022.94
2022-08-11T02:19:12.877Z,1022.94
2022-08-11T02:20:13.770Z,1022.94
2022-08-11T02:21:13.804Z,1022.92
2022-08-11T02:22:13.738Z,1022.89
2022-08-11T02:23:14.001Z,1022.91
2022-08-11T02:24:16.146Z,1022.94
2022-08-11T02:25:13.051Z,1022.96
2022-08-11T02:26:13.910Z,1022.97
2022-08-11T02:27:12.882Z,1022.94
2022-08-11T02:28:15.640Z,1022.95
2022-08-11T02:29:15.352Z,1022.98
2022-08-11T02:30:13.353Z,1022.95
2022-08-11T02:32:04.798Z,1022.99
2022-08-11T02:32:28.875Z,1022.95
2022-08-11T02:33:13.646Z,1022.94
2022-08-11T02:34:13.518Z,1022.95
2022-08-11T02:35:13.466Z,1022.98
2022-08-11T02:36:13.646Z,1022.96
2022-08-11T02:37:14.043Z,1022.93
2022-08-11T02:38:15.686Z,1022.94
2022-08-11T02:39:14.134Z,1022.92
2022-08-11T02:40:13.402Z,1022.90
2022-08-11T02:41:14.921Z,1022.89
2022-08-11T02:42:32.869Z,1022.89
2022-08-11T02:43:13.333Z,1022.87
2022-08-11T02:44:13.221Z,1022.87
2022-08-11T02:45:13.052Z,1022.87
2022-08-11T02:46:18.086Z,1022.90
2022-08-11T02:47:13.543Z,1022.86
2022-08-11T02:48:13.368Z,1022.90
2022-08-11T02:49:13.408Z,1022.90
2022-08-11T02:50:13.411Z,1022.93
2022-08-11T02:51:13.622Z,1022.93
2022-08-11T02:52:13.613Z,1022.93
2022-08-11T02:53:13.754Z,1022.95
2022-08-11T02:54:13.684Z,1022.92
2022-08-11T02:55:48.046Z,1022.92
2022-08-11T02:56:13.904Z,1022.90
2022-08-11T02:57:12.958Z,1022.90
2022-08-11T02:58:13.278Z,1022.92
2022-08-11T02:59:13.724Z,1022.88
2022-08-11T03:00:13.661Z,1022.90
2022-08-11T03:01:13.693Z,1022.91
2022-08-11T03:02:13.713Z,1022.90
2022-08-11T03:03:13.608Z,1022.90
2022-08-11T03:04:13.612Z,1022.91
2022-08-11T03:05:13.478Z,1022.94
2022-08-11T03:06:13.486Z,1022.92
2022-08-11T03:07:29.333Z,1022.91
2022-08-11T03:08:13.310Z,1022.95
2022-08-11T03:09:13.434Z,1022.95
2022-08-11T03:10:13.399Z,1022.94
2022-08-11T03:11:13.383Z,1022.95
2022-08-11T03:12:13.245Z,1022.94
2022-08-11T03:13:15.699Z,1022.98
2022-08-11T03:14:13.735Z,1022.97
2022-08-11T03:15:18.783Z,1022.97
2022-08-11T03:16:13.725Z,1023.00
2022-08-11T03:17:13.601Z,1022.99
2022-08-11T03:18:13.573Z,1022.97
2022-08-11T03:19:13.641Z,1022.93
2022-08-11T03:20:13.636Z,1022.89
2022-08-11T03:21:13.638Z,1022.93
2022-08-11T03:22:14.428Z,1022.93
2022-08-11T03:23:19.725Z,1022.93
2022-08-11T03:24:13.368Z,1022.94
2022-08-11T03:25:15.021Z,1022.90
2022-08-11T03:26:12.888Z,1022.87
2022-08-11T03:27:13.838Z,1022.94
2022-08-11T03:28:13.817Z,1022.88
2022-08-11T03:29:18.153Z,1022.90
2022-08-11T03:30:13.525Z,1022.88
2022-08-11T03:31:13.551Z,1022.89
2022-08-11T03:32:13.453Z,1022.90
2022-08-11T03:33:13.342Z,1022.87
2022-08-11T03:34:13.303Z,1022.86
2022-08-11T03:35:19.829Z,1022.84
2022-08-11T03:36:13.571Z,1022.87
2022-08-11T03:37:16.383Z,1022.88
2022-08-11T03:38:13.273Z,1022.89
2022-08-11T03:39:13.089Z,1022.86
2022-08-11T03:40:13.068Z,1022.89
2022-08-11T03:41:59.279Z,1022.91
2022-08-11T03:42:13.526Z,1022.89
2022-08-11T03:43:13.395Z,1022.93
2022-08-11T03:44:13.642Z,1022.91
2022-08-11T03:45:13.563Z,1022.90
2022-08-11T03:46:13.636Z,1022.92
2022-08-11T03:47:13.810Z,1022.91
2022-08-11T03:48:14.158Z,1022.90
2022-08-11T03:49:13.103Z,1022.86
2022-08-11T03:50:13.107Z,1022.85
2022-08-11T03:51:13.192Z,1022.85
2022-08-11T03:52:14.734Z,1022.82
2022-08-11T03:53:13.725Z,1022.85
2022-08-11T03:54:13.717Z,1022.85
2022-08-11T03:55:13.652Z,1022.81
2022-08-11T03:56:13.578Z,1022.80
2022-08-11T03:57:13.641Z,1022.84
2022-08-11T03:58:13.691Z,1022.81
2022-08-11T03:59:13.565Z,1022.83
2022-08-11T04:00:44.527Z,1022.81
2022-08-11T04:01:13.684Z,1022.82
2022-08-11T04:02:13.693Z,1022.83
2022-08-11T04:03:13.572Z,1022.82
2022-08-11T04:04:13.508Z,1022.82
2022-08-11T04:05:13.442Z,1022.88
2022-08-11T04:06:13.283Z,1022.85
2022-08-11T04:07:17.406Z,1022.84
2022-08-11T04:08:13.944Z,1022.83
2022-08-11T04:09:14.428Z,1022.82
2022-08-11T04:10:13.580Z,1022.83
2022-08-11T04:11:13.854Z,1022.80
2022-08-11T04:12:14.821Z,1022.81
2022-08-11T04:13:13.180Z,1022.82
2022-08-11T04:14:13.208Z,1022.81
2022-08-11T04:15:13.396Z,1022.82
2022-08-11T04:16:13.334Z,1022.83
2022-08-11T04:17:13.503Z,1022.84
2022-08-11T04:18:13.793Z,1022.82
2022-08-11T04:19:13.603Z,1022.80
2022-08-11T04:20:13.820Z,1022.80
2022-08-11T04:21:14.047Z,1022.83
2022-08-11T04:22:12.912Z,1022.82
2022-08-11T04:24:37.120Z,1022.84
2022-08-11T04:24:38.652Z,1022.83
2022-08-11T04:25:13.425Z,1022.82
2022-08-11T04:26:16.185Z,1022.81
2022-08-11T04:27:14.264Z,1022.82
2022-08-11T04:28:28.567Z,1022.81
2022-08-11T04:29:14.997Z,1022.80
2022-08-11T04:30:13.243Z,1022.80
2022-08-11T04:31:13.105Z,1022.80
2022-08-11T04:32:12.703Z,1022.81
2022-08-11T04:33:15.444Z,1022.80
2022-08-11T04:34:13.292Z,1022.80
2022-08-11T04:35:13.411Z,1022.80
2022-08-11T04:36:13.406Z,1022.79
2022-08-11T04:37:13.614Z,1022.77
2022-08-11T04:38:13.887Z,1022.79
2022-08-11T04:39:13.051Z,1022.79
2022-08-11T04:40:13.076Z,1022.82
2022-08-11T04:41:13.275Z,1022.81
2022-08-11T04:42:14.355Z,1022.81
2022-08-11T04:43:13.448Z,1022.84
2022-08-11T04:44:13.674Z,1022.79
2022-08-11T04:45:18.601Z,1022.79
2022-08-11T04:46:13.792Z,1022.80
2022-08-11T04:47:13.933Z,1022.85
2022-08-11T04:48:18.694Z,1022.83
2022-08-11T04:49:13.966Z,1022.84
2022-08-11T04:50:13.626Z,1022.86
2022-08-11T04:51:17.193Z,1022.82
2022-08-11T04:52:13.547Z,1022.86
2022-08-11T04:53:13.335Z,1022.87
2022-08-11T04:54:13.535Z,1022.86
2022-08-11T04:55:13.462Z,1022.87
2022-08-11T04:56:18.411Z,1022.87
2022-08-11T04:57:13.581Z,1022.87
2022-08-11T04:58:13.505Z,1022.88
2022-08-11T04:59:13.545Z,1022.90
2022-08-11T05:00:13.609Z,1022.92
2022-08-11T05:01:15.346Z,1022.91
2022-08-11T05:02:17.360Z,1022.90
2022-08-11T05:03:13.583Z,1022.92
2022-08-11T05:04:13.771Z,1022.92
2022-08-11T05:05:13.690Z,1022.88
2022-08-11T05:06:13.537Z,1022.88
2022-08-11T05:07:13.750Z,1022.91
2022-08-11T05:08:15.295Z,1022.92
2022-08-11T05:09:12.998Z,1022.92
2022-08-11T05:10:12.983Z,1022.91
2022-08-11T05:11:12.974Z,1022.89
2022-08-11T05:12:13.166Z,1022.94
2022-08-11T05:13:13.402Z,1022.89
2022-08-11T05:14:13.348Z,1022.91
2022-08-11T05:15:13.276Z,1022.90
2022-08-11T05:16:15.134Z,1022.91
2022-08-11T05:17:13.262Z,1022.89
2022-08-11T05:18:13.171Z,1022.88
2022-08-11T05:19:15.987Z,1022.89
2022-08-11T05:20:13.345Z,1022.93
2022-08-11T05:21:13.238Z,1022.91
2022-08-11T05:22:14.224Z,1022.93
2022-08-11T05:23:13.304Z,1022.91
2022-08-11T05:24:14.862Z,1022.95
2022-08-11T05:25:12.981Z,1022.96
2022-08-11T05:26:46.658Z,1022.97
2022-08-11T05:27:14.091Z,1022.99
2022-08-11T05:28:13.312Z,1023.00
2022-08-11T05:29:20.201Z,1022.99
2022-08-11T05:30:13.073Z,1022.97
2022-08-11T05:31:13.115Z,1022.97
2022-08-11T05:32:13.415Z,1023.01
2022-08-11T05:33:14.708Z,1022.97
2022-08-11T05:34:13.602Z,1023.00
2022-08-11T05:35:18.535Z,1022.99
2022-08-11T05:36:12.920Z,1023.03
2022-08-11T05:37:26.330Z,1023.02
2022-08-11T05:38:13.297Z,1023.02
2022-08-11T05:39:13.654Z,1023.01
2022-08-11T05:40:13.973Z,1023.04
2022-08-11T05:41:12.878Z,1023.02
2022-08-11T05:42:29.784Z,1023.04
2022-08-11T05:43:13.611Z,1023.04
2022-08-11T05:44:20.005Z,1023.08
2022-08-11T05:45:15.394Z,1023.10
2022-08-11T05:46:13.304Z,1023.09
2022-08-11T05:47:13.256Z,1023.10
2022-08-11T05:48:13.256Z,1023.07
2022-08-11T05:49:13.565Z,1023.08
2022-08-11T05:50:15.043Z,1023.07
2022-08-11T05:51:13.471Z,1023.06
2022-08-11T05:52:16.564Z,1023.06
2022-08-11T05:53:14.049Z,1023.07
2022-08-11T05:54:28.865Z,1023.08
2022-08-11T05:55:13.488Z,1023.11
2022-08-11T05:56:14.909Z,1023.09
2022-08-11T05:57:48.301Z,1023.05
2022-08-11T05:58:13.770Z,1023.06
2022-08-11T05:59:13.711Z,1023.03
2022-08-11T06:00:14.652Z,1023.09
2022-08-11T06:01:14.764Z,1023.11
2022-08-11T06:02:14.068Z,1023.07
2022-08-11T06:03:12.985Z,1023.09
2022-08-11T06:04:17.886Z,1023.10
2022-08-11T06:05:13.158Z,1023.09
2022-08-11T06:06:13.554Z,1023.10
2022-08-11T06:07:13.361Z,1023.07
2022-08-11T06:08:13.271Z,1023.04
2022-08-11T06:09:13.114Z,1023.07
2022-08-11T06:10:12.981Z,1023.07
2022-08-11T06:11:13.015Z,1023.03
2022-08-11T06:12:13.045Z,1023.02
2022-08-11T06:13:16.782Z,1023.00
2022-08-11T06:14:16.436Z,1023.00
2022-08-11T06:15:14.820Z,1023.03
2022-08-11T06:16:13.944Z,1023.05
2022-08-11T06:17:12.812Z,1023.07
2022-08-11T06:18:13.864Z,1023.07
2022-08-11T06:19:13.881Z,1023.08
2022-08-11T06:20:12.903Z,1023.07
2022-08-11T06:21:12.855Z,1023.10
2022-08-11T06:22:14.181Z,1023.07
2022-08-11T06:23:13.514Z,1023.06
2022-08-11T06:24:13.544Z,1023.06
2022-08-11T06:25:13.424Z,1023.04
2022-08-11T06:26:13.633Z,1023.06
2022-08-11T06:27:15.417Z,1023.01
2022-08-11T06:28:18.568Z,1023.00
2022-08-11T06:29:13.659Z,1023.02
2022-08-11T06:30:14.449Z,1023.00
2022-08-11T06:31:14.977Z,1023.01
2022-08-11T06:32:12.940Z,1023.02
2022-08-11T06:33:12.916Z,1023.01
2022-08-11T06:34:12.868Z,1023.00
2022-08-11T06:35:14.948Z,1022.97
2022-08-11T06:36:17.795Z,1023.00
2022-08-11T06:37:16.470Z,1022.99
2022-08-11T06:38:14.049Z,1022.96
2022-08-11T06:39:13.183Z,1023.05
2022-08-11T06:40:16.265Z,1023.01
2022-08-11T06:41:13.369Z,1023.03
2022-08-11T06:42:15.054Z,1023.02
2022-08-11T06:43:13.043Z,1023.06
2022-08-11T06:44:12.970Z,1023.05
2022-08-11T06:45:14.473Z,1023.03
2022-08-11T06:46:13.513Z,1023.02
2022-08-11T06:47:16.361Z,1022.98
2022-08-11T06:48:14.976Z,1023.00
2022-08-11T06:49:13.143Z,1023.01
2022-08-11T06:50:14.703Z,1022.98
2022-08-11T06:51:15.203Z,1023.01
2022-08-11T06:52:34.468Z,1023.01
2022-08-11T06:53:15.252Z,1022.99
2022-08-11T06:54:13.190Z,1022.97
2022-08-11T06:55:57.141Z,1022.99
2022-08-11T06:56:13.186Z,1022.97
2022-08-11T06:57:29.504Z,1022.99
2022-08-11T06:58:13.343Z,1023.00
2022-08-11T06:59:13.211Z,1023.01
2022-08-11T07:00:13.228Z,1023.02
2022-08-11T07:01:14.971Z,1023.05
2022-08-11T07:02:13.405Z,1023.03
2022-08-11T07:03:13.450Z,1023.01
2022-08-11T07:04:19.551Z,1023.05
2022-08-11T07:05:15.209Z,1023.05
2022-08-11T07:06:13.296Z,1023.10
2022-08-11T07:07:13.135Z,1023.09
2022-08-11T07:08:33.938Z,1023.07
2022-08-11T07:09:13.727Z,1023.06
2022-08-11T07:10:13.629Z,1023.07
2022-08-11T07:11:13.812Z,1023.08
2022-08-11T07:12:15.505Z,1023.06
2022-08-11T07:13:45.040Z,1023.09
2022-08-11T07:14:15.548Z,1023.09
2022-08-11T07:15:13.520Z,1023.13
2022-08-11T07:16:15.276Z,1023.12
2022-08-11T07:17:13.394Z,1023.13
2022-08-11T07:18:13.242Z,1023.10
2022-08-11T07:19:16.540Z,1023.08
2022-08-11T07:20:15.269Z,1023.12
2022-08-11T07:22:00.319Z,1023.11
2022-08-11T07:22:14.981Z,1023.11
2022-08-11T07:23:16.017Z,1023.13
2022-08-11T07:24:12.781Z,1023.08
2022-08-11T07:25:16.684Z,1023.09
2022-08-11T07:26:13.483Z,1023.10
2022-08-11T07:27:15.098Z,1023.10
2022-08-11T07:28:13.269Z,1023.05
2022-08-11T07:29:13.319Z,1023.07
2022-08-11T07:30:13.192Z,1023.09
2022-08-11T07:31:14.876Z,1023.05
2022-08-11T07:32:16.613Z,1023.06
2022-08-11T07:33:18.996Z,1023.02
2022-08-11T07:34:18.008Z,1023.04
2022-08-11T07:35:15.084Z,1023.01
2022-08-11T07:36:14.203Z,1023.00
2022-08-11T07:37:14.011Z,1023.02
2022-08-11T07:38:12.896Z,1023.02
2022-08-11T07:39:13.508Z,1023.00
2022-08-11T07:40:13.543Z,1023.00
2022-08-11T07:41:14.301Z,1023.04
2022-08-11T07:42:15.084Z,1023.02
2022-08-11T07:43:18.283Z,1023.05
2022-08-11T07:44:14.141Z,1023.07
2022-08-11T07:45:13.038Z,1023.05
2022-08-11T07:46:15.530Z,1023.06
2022-08-11T07:47:18.045Z,1023.05
2022-08-11T07:48:17.395Z,1023.05
2022-08-11T07:49:18.676Z,1023.06
2022-08-11T07:50:17.943Z,1023.03
2022-08-11T07:51:12.827Z,1023.04
2022-08-11T07:52:19.305Z,1023.04
2022-08-11T07:53:14.817Z,1023.03
2022-08-11T07:54:17.110Z,1023.02
2022-08-11T07:55:13.203Z,1023.00
2022-08-11T07:56:14.562Z,1023.01
2022-08-11T07:57:59.479Z,1022.97
2022-08-11T07:58:19.741Z,1023.00
2022-08-11T07:59:17.825Z,1022.96
2022-08-11T08:00:13.786Z,1022.99
2022-08-11T08:01:21.434Z,1023.02
2022-08-11T08:02:18.546Z,1022.98
2022-08-11T08:03:15.160Z,1023.00
2022-08-11T08:04:17.609Z,1022.95
2022-08-11T08:05:14.516Z,1022.99
2022-08-11T08:06:28.533Z,1022.97
2022-08-11T08:07:16.170Z,1022.98
2022-08-11T08:08:17.337Z,1023.02
2022-08-11T08:09:17.227Z,1023.01
2022-08-11T08:10:14.180Z,1023.04
2022-08-11T08:11:19.482Z,1023.01
2022-08-11T08:12:16.571Z,1023.03
2022-08-11T08:13:22.047Z,1023.01
2022-08-11T08:14:17.678Z,1023.02
2022-08-11T08:15:16.543Z,1022.99
2022-08-11T08:16:21.023Z,1023.04
2022-08-11T08:17:15.103Z,1023.00
2022-08-11T08:18:26.086Z,1022.98
2022-08-11T08:19:15.742Z,1022.98
2022-08-11T08:20:18.534Z,1022.98
2022-08-11T08:21:16.246Z,1022.99
2022-08-11T08:22:37.788Z,1023.04
2022-08-11T08:23:17.170Z,1023.05
2022-08-11T08:24:16.813Z,1023.07
2022-08-11T08:25:17.686Z,1023.03
2022-08-11T08:26:17.181Z,1023.07
2022-08-11T08:27:15.025Z,1023.05
2022-08-11T08:28:13.023Z,1023.14
2022-08-11T08:29:16.128Z,1023.12
2022-08-11T08:30:17.249Z,1023.10
2022-08-11T08:31:14.912Z,1023.09
2022-08-11T08:32:16.995Z,1023.10
2022-08-11T08:33:18.630Z,1023.14
2022-08-11T08:34:18.945Z,1023.13
2022-08-11T08:35:17.082Z,1023.13
2022-08-11T08:36:18.039Z,1023.10
2022-08-11T08:37:45.705Z,1023.11
2022-08-11T08:38:21.013Z,1023.10
2022-08-11T08:39:15.680Z,1023.13
2022-08-11T08:40:13.916Z,1023.12
2022-08-11T08:41:16.653Z,1023.09
2022-08-11T08:42:17.900Z,1023.16
2022-08-11T08:43:16.877Z,1023.09
2022-08-11T08:44:37.084Z,1023.12
2022-08-11T08:45:18.103Z,1023.12
2022-08-11T08:46:16.500Z,1023.12
2022-08-11T08:47:43.159Z,1023.12
2022-08-11T08:48:18.223Z,1023.13
2022-08-11T08:49:13.658Z,1023.10
2022-08-11T08:50:19.155Z,1023.12
2022-08-11T08:51:16.469Z,1023.08
2022-08-11T08:52:33.469Z,1023.06
2022-08-11T08:53:17.561Z,1023.06
2022-08-11T08:54:13.593Z,1023.10
2022-08-11T08:55:13.505Z,1023.07
2022-08-11T08:56:16.777Z,1023.10
2022-08-11T08:57:17.915Z,1023.09
2022-08-11T08:58:19.028Z,1023.08
2022-08-11T08:59:19.920Z,1023.12
2022-08-11T09:00:23.160Z,1023.09
2022-08-11T09:01:16.578Z,1023.10
2022-08-11T09:02:18.469Z,1023.11
2022-08-11T09:03:39.932Z,1023.06
2022-08-11T09:04:20.753Z,1023.06
2022-08-11T09:05:18.909Z,1023.08
2022-08-11T09:06:17.802Z,1023.10
2022-08-11T09:07:20.118Z,1023.09
2022-08-11T09:08:16.081Z,1023.08
2022-08-11T09:09:12.962Z,1023.07
2022-08-11T09:10:16.143Z,1023.04
2022-08-11T09:11:16.977Z,1023.07
2022-08-11T09:12:38.616Z,1023.06
2022-08-11T09:13:15.936Z,1023.02
2022-08-11T09:14:18.244Z,1023.04
2022-08-11T09:15:15.011Z,1023.02
2022-08-11T09:16:16.762Z,1023.04
2022-08-11T09:17:18.171Z,1023.05
2022-08-11T09:18:18.568Z,1023.05
2022-08-11T09:19:15.602Z,1023.03
2022-08-11T09:20:14.772Z,1023.04
2022-08-11T09:21:44.556Z,1023.02
2022-08-11T09:22:18.018Z,1023.01
2022-08-11T09:24:08.843Z,1022.99
2022-08-11T09:24:25.851Z,1023.00
2022-08-11T09:25:18.270Z,1023.01
2022-08-11T09:26:15.784Z,1023.01
2022-08-11T09:27:16.695Z,1023.01
2022-08-11T09:28:19.385Z,1023.03
2022-08-11T09:29:18.924Z,1022.98
2022-08-11T09:30:17.977Z,1023.01
2022-08-11T09:31:17.333Z,1023.03
2022-08-11T09:32:14.731Z,1022.99
2022-08-11T09:33:15.344Z,1023.03
2022-08-11T09:34:17.891Z,1023.04
2022-08-11T09:35:19.324Z,1023.07
2022-08-11T09:36:16.230Z,1023.07
2022-08-11T09:37:38.422Z,1023.09
2022-08-11T09:38:15.559Z,1023.07
2022-08-11T09:39:17.229Z,1023.03
2022-08-11T09:40:14.853Z,1023.05
2022-08-11T09:41:15.808Z,1023.00
2022-08-11T09:42:23.653Z,1023.09
2022-08-11T09:43:17.513Z,1023.11
2022-08-11T09:44:17.901Z,1023.06
2022-08-11T09:45:17.360Z,1023.01
2022-08-11T09:46:17.019Z,1023.03
2022-08-11T09:47:18.131Z,1022.98
2022-08-11T09:48:17.071Z,1022.92
2022-08-11T09:49:16.176Z,1022.98
2022-08-11T09:50:16.376Z,1023.00
2022-08-11T09:51:14.825Z,1022.99
2022-08-11T09:52:15.807Z,1022.98
2022-08-11T09:53:36.535Z,1022.96
2022-08-11T09:54:19.795Z,1022.96
2022-08-11T09:55:18.000Z,1022.95
2022-08-11T09:56:25.119Z,1022.95
2022-08-11T09:57:19.530Z,1022.95
2022-08-11T09:58:42.820Z,1022.92
2022-08-11T09:59:17.946Z,1022.90
2022-08-11T10:00:15.832Z,1022.95
2022-08-11T10:01:16.661Z,1022.89
2022-08-11T10:02:16.845Z,1022.93
2022-08-11T10:03:15.924Z,1022.95
2022-08-11T10:04:15.777Z,1022.87
2022-08-11T10:05:19.114Z,1022.89
2022-08-11T10:06:18.864Z,1022.86
2022-08-11T10:07:16.099Z,1022.91
2022-08-11T10:08:18.987Z,1022.92
2022-08-11T10:09:16.752Z,1022.87
2022-08-11T10:10:18.412Z,1022.86
2022-08-11T10:11:18.130Z,1022.80
2022-08-11T10:12:17.032Z,1022.77
2022-08-11T10:14:30.875Z,1022.78
2022-08-11T10:14:30.934Z,1022.79
2022-08-11T10:15:16.237Z,1022.80
2022-08-11T10:16:18.558Z,1022.82
2022-08-11T10:17:48.192Z,1022.76
2022-08-11T10:18:16.874Z,1022.75
2022-08-11T10:19:18.614Z,1022.75
2022-08-11T10:20:25.297Z,1022.78
2022-08-11T10:21:20.729Z,1022.77
2022-08-11T10:22:18.228Z,1022.76
2022-08-11T10:23:18.665Z,1022.78
2022-08-11T10:24:17.781Z,1022.75
2022-08-11T10:25:20.261Z,1022.79
2022-08-11T10:26:18.585Z,1022.75
2022-08-11T10:27:20.023Z,1022.77
2022-08-11T10:28:28.686Z,1022.71
2022-08-11T10:29:18.573Z,1022.70
2022-08-11T10:30:19.259Z,1022.67
2022-08-11T10:31:18.975Z,1022.72
2022-08-11T10:32:16.887Z,1022.69
2022-08-11T10:33:37.010Z,1022.64
2022-08-11T10:34:17.326Z,1022.64
2022-08-11T10:35:17.063Z,1022.62
2022-08-11T10:36:18.720Z,1022.62
2022-08-11T10:37:19.250Z,1022.62
2022-08-11T10:38:17.386Z,1022.66
2022-08-11T10:39:19.081Z,1022.72
2022-08-11T10:40:17.708Z,1022.65
2022-08-11T10:41:19.046Z,1022.64
2022-08-11T10:42:35.016Z,1022.62
2022-08-11T10:44:01.936Z,1022.64
2022-08-11T10:44:17.922Z,1022.59
2022-08-11T10:45:19.577Z,1022.61
2022-08-11T10:46:17.148Z,1022.64
2022-08-11T10:47:18.114Z,1022.62
2022-08-11T10:48:19.361Z,1022.57
2022-08-11T10:49:16.539Z,1022.59
2022-08-11T10:50:17.675Z,1022.57
2022-08-11T10:51:51.203Z,1022.53
2022-08-11T10:52:18.737Z,1022.51
2022-08-11T10:53:17.659Z,1022.45
2022-08-11T10:54:20.100Z,1022.40
2022-08-11T10:55:20.151Z,1022.34
2022-08-11T10:56:17.884Z,1022.35
2022-08-11T10:57:18.383Z,1022.42
2022-08-11T10:58:18.402Z,1022.47
2022-08-11T10:59:17.939Z,1022.54
2022-08-11T11:00:18.656Z,1022.50
2022-08-11T11:01:19.602Z,1022.50
2022-08-11T11:02:19.770Z,1022.49
2022-08-11T11:03:23.501Z,1022.49
2022-08-11T11:04:18.442Z,1022.50
2022-08-11T11:05:20.514Z,1022.42
2022-08-11T11:06:28.388Z,1022.46
2022-08-11T11:07:19.643Z,1022.43
2022-08-11T11:08:21.238Z,1022.41
2022-08-11T11:09:20.463Z,1022.37
2022-08-11T11:10:19.874Z,1022.29
2022-08-11T11:11:18.472Z,1022.20
2022-08-11T11:12:20.235Z,1022.20
2022-08-11T11:13:18.867Z,1022.23
2022-08-11T11:14:17.750Z,1022.25
2022-08-11T11:15:20.062Z,1022.23
2022-08-11T11:16:18.046Z,1022.21
2022-08-11T11:17:19.496Z,1022.32
2022-08-11T11:18:20.805Z,1022.25
2022-08-11T11:19:20.311Z,1022.24
2022-08-11T11:20:37.421Z,1022.26
2022-08-11T11:21:18.639Z,1022.27
2022-08-11T11:22:19.743Z,1022.27
2022-08-11T11:23:18.844Z,1022.31
2022-08-11T11:24:18.369Z,1022.23
2022-08-11T11:25:20.349Z,1022.23
2022-08-11T11:26:19.405Z,1022.23
2022-08-11T11:27:20.259Z,1022.19
2022-08-11T11:28:19.419Z,1022.20
2022-08-11T11:29:19.751Z,1022.20
2022-08-11T11:30:19.334Z,1022.14
2022-08-11T11:31:19.646Z,1022.13
2022-08-11T11:32:19.643Z,1022.13
2022-08-11T11:33:17.828Z,1022.14
2022-08-11T11:34:20.010Z,1022.12
2022-08-11T11:35:19.560Z,1022.12
2022-08-11T11:36:20.515Z,1022.07
2022-08-11T11:37:20.828Z,1022.08
2022-08-11T11:38:19.228Z,1022.11
2022-08-11T11:39:19.367Z,1022.02
2022-08-11T11:40:20.063Z,1022.04
2022-08-11T11:41:20.541Z,1021.98
2022-08-11T11:42:19.704Z,1022.06
2022-08-11T11:43:20.217Z,1022.00
2022-08-11T11:44:20.083Z,1021.93
2022-08-11T11:45:23.924Z,1021.94
2022-08-11T11:46:19.624Z,1021.94
2022-08-11T11:47:21.795Z,1021.93
2022-08-11T11:48:20.874Z,1021.98
2022-08-11T11:50:21.217Z,1021.90
2022-08-11T11:51:18.989Z,1021.93
2022-08-11T11:52:20.617Z,1021.94
2022-08-11T11:53:20.135Z,1021.89
2022-08-11T11:54:20.385Z,1021.90
2022-08-11T11:56:21.323Z,1021.85
2022-08-11T11:57:21.200Z,1021.84
2022-08-11T11:58:22.198Z,1021.87
2022-08-11T11:59:19.591Z,1021.85
2022-08-11T12:00:19.850Z,1021.92
2022-08-11T12:01:18.270Z,1021.89
2022-08-11T12:02:20.788Z,1021.85
2022-08-11T12:03:20.999Z,1021.85
2022-08-11T12:04:18.549Z,1021.88
2022-08-11T12:05:19.665Z,1021.85
2022-08-11T12:06:20.449Z,1021.81
2022-08-11T12:07:21.025Z,1021.71